sensor_id;sensor_type;location;lat;lon;timestamp;pressure;altitude;pressure_sealevel;temperature;humidity
64827;BME280;51265;53.972;12.286;2023-04-26T00:01:03;100381.75;;;2.87;100.00
64827;BME280;51265;53.972;12.286;2023-04-26T00:03:30;100378.66;;;2.78;100.00
64827;BME280;51265;53.972;12.286;2023-04-26T00:06:01;100382.97;;;2.74;100.00
64827;BME280;51265;53.972;12.286;2023-04-26T00:08:30;100378.03;;;2.71;100.00
64827;BME280;51265;53.972;12.286;2023-04-26T00:10:57;100367.16;;;2.71;100.00
64827;BME280;51265;53.972;12.286;2023-04-26T00:13:23;100378.84;;;2.71;100.00
64827;BME280;51265;53.972;12.286;2023-04-26T00:15:49;100376.88;;;2.67;100.00
64827;BME280;51265;53.972;12.286;2023-04-26T00:18:16;100376.88;;;2.67;100.00
64827;BME280;51265;53.972;12.286;2023-04-26T00:20:45;100390.47;;;2.67;100.00
64827;BME280;51265;53.972;12.286;2023-04-26T00:23:12;100379.22;;;2.58;100.00
64827;BME280;51265;53.972;12.286;2023-04-26T00:25:38;100369.69;;;2.56;100.00
64827;BME280;51265;53.972;12.286;2023-04-26T00:28:05;100389.78;;;2.55;100.00
64827;BME280;51265;53.972;12.286;2023-04-26T00:30:31;100387.31;;;2.53;100.00
64827;BME280;51265;53.972;12.286;2023-04-26T00:32:59;100390.41;;;2.62;100.00
64827;BME280;51265;53.972;12.286;2023-04-26T00:35:26;100392.50;;;2.55;100.00
64827;BME280;51265;53.972;12.286;2023-04-26T00:37:52;100397.44;;;2.58;100.00
64827;BME280;51265;53.972;12.286;2023-04-26T00:40:19;100394.59;;;2.47;100.00
64827;BME280;51265;53.972;12.286;2023-04-26T00:42:46;100388.84;;;2.44;100.00
64827;BME280;51265;53.972;12.286;2023-04-26T00:45:13;100394.81;;;2.46;100.00
64827;BME280;51265;53.972;12.286;2023-04-26T00:47:39;100395.22;;;2.55;100.00
64827;BME280;51265;53.972;12.286;2023-04-26T00:50:06;100393.34;;;2.55;100.00
64827;BME280;51265;53.972;12.286;2023-04-26T00:52:33;100392.16;;;2.68;100.00
64827;BME280;51265;53.972;12.286;2023-04-26T00:55:01;100399.59;;;2.78;100.00
64827;BME280;51265;53.972;12.286;2023-04-26T00:57:28;100395.09;;;2.88;100.00
64827;BME280;51265;53.972;12.286;2023-04-26T00:59:54;100401.69;;;2.92;100.00
64827;BME280;51265;53.972;12.286;2023-04-26T01:02:21;100393.66;;;2.81;100.00
64827;BME280;51265;53.972;12.286;2023-04-26T01:04:48;100402.13;;;2.84;100.00
64827;BME280;51265;53.972;12.286;2023-04-26T01:07:14;100402.72;;;2.86;100.00
64827;BME280;51265;53.972;12.286;2023-04-26T01:09:41;100404.47;;;2.75;100.00
64827;BME280;51265;53.972;12.286;2023-04-26T01:12:10;100400.91;;;2.75;100.00
64827;BME280;51265;53.972;12.286;2023-04-26T01:14:38;100405.88;;;2.78;100.00
64827;BME280;51265;53.972;12.286;2023-04-26T01:17:04;100401.50;;;2.77;100.00
64827;BME280;51265;53.972;12.286;2023-04-26T01:19:31;100404.72;;;2.74;100.00
64827;BME280;51265;53.972;12.286;2023-04-26T01:21:58;100408.53;;;2.73;100.00
64827;BME280;51265;53.972;12.286;2023-04-26T01:24:24;100407.38;;;2.69;100.00
64827;BME280;51265;53.972;12.286;2023-04-26T01:26:51;100406.75;;;2.62;100.00
64827;BME280;51265;53.972;12.286;2023-04-26T01:29:20;100404.06;;;2.67;100.00
64827;BME280;51265;53.972;12.286;2023-04-26T01:31:47;100403.97;;;2.57;100.00
64827;BME280;51265;53.972;12.286;2023-04-26T01:34:14;100416.09;;;2.71;100.00
64827;BME280;51265;53.972;12.286;2023-04-26T01:36:40;100403.84;;;2.68;100.00
64827;BME280;51265;53.972;12.286;2023-04-26T01:39:07;100408.97;;;2.65;100.00
64827;BME280;51265;53.972;12.286;2023-04-26T01:41:36;100411.69;;;2.65;100.00
64827;BME280;51265;53.972;12.286;2023-04-26T01:44:03;100419.41;;;2.73;100.00
64827;BME280;51265;53.972;12.286;2023-04-26T01:46:30;100420.06;;;2.80;100.00
64827;BME280;51265;53.972;12.286;2023-04-26T01:48:57;100420.34;;;2.84;100.00
64827;BME280;51265;53.972;12.286;2023-04-26T01:51:23;100416.25;;;2.81;100.00
64827;BME280;51265;53.972;12.286;2023-04-26T01:53:50;100424.97;;;2.83;100.00
64827;BME280;51265;53.972;12.286;2023-04-26T01:56:16;100419.63;;;2.71;100.00
64827;BME280;51265;53.972;12.286;2023-04-26T01:58:43;100429.13;;;2.69;100.00
64827;BME280;51265;53.972;12.286;2023-04-26T02:01:10;100413.84;;;2.46;100.00
64827;BME280;51265;53.972;12.286;2023-04-26T02:03:37;100419.81;;;2.43;100.00
64827;BME280;51265;53.972;12.286;2023-04-26T02:06:03;100420.47;;;2.33;100.00
64827;BME280;51265;53.972;12.286;2023-04-26T02:08:30;100415.56;;;2.30;100.00
64827;BME280;51265;53.972;12.286;2023-04-26T02:10:56;100419.84;;;2.26;100.00
64827;BME280;51265;53.972;12.286;2023-04-26T02:13:23;100415.25;;;2.10;100.00
64827;BME280;51265;53.972;12.286;2023-04-26T02:15:50;100419.84;;;2.09;100.00
64827;BME280;51265;53.972;12.286;2023-04-26T02:18:18;100425.78;;;2.06;100.00
64827;BME280;51265;53.972;12.286;2023-04-26T02:20:47;100419.75;;;2.04;100.00
64827;BME280;51265;53.972;12.286;2023-04-26T02:23:13;100424.13;;;2.05;100.00
64827;BME280;51265;53.972;12.286;2023-04-26T02:25:45;100425.19;;;1.87;100.00
64827;BME280;51265;53.972;12.286;2023-04-26T02:28:12;100432.84;;;1.90;100.00
64827;BME280;51265;53.972;12.286;2023-04-26T02:30:39;100431.44;;;2.05;100.00
64827;BME280;51265;53.972;12.286;2023-04-26T02:33:05;100435.81;;;2.06;100.00
64827;BME280;51265;53.972;12.286;2023-04-26T02:35:32;100430.38;;;2.06;100.00
64827;BME280;51265;53.972;12.286;2023-04-26T02:37:59;100431.22;;;2.06;100.00
64827;BME280;51265;53.972;12.286;2023-04-26T02:40:25;100429.22;;;2.02;100.00
64827;BME280;51265;53.972;12.286;2023-04-26T02:42:52;100423.81;;;2.02;100.00
64827;BME280;51265;53.972;12.286;2023-04-26T02:45:18;100430.88;;;2.03;100.00
64827;BME280;51265;53.972;12.286;2023-04-26T02:47:44;100438.19;;;2.02;100.00
64827;BME280;51265;53.972;12.286;2023-04-26T02:50:11;100424.13;;;2.05;100.00
64827;BME280;51265;53.972;12.286;2023-04-26T02:52:37;100432.50;;;2.04;100.00
64827;BME280;51265;53.972;12.286;2023-04-26T02:55:04;100439.09;;;2.08;100.00
64827;BME280;51265;53.972;12.286;2023-04-26T02:57:31;100436.56;;;2.18;100.00
64827;BME280;51265;53.972;12.286;2023-04-26T02:59:58;100440.06;;;2.35;100.00
64827;BME280;51265;53.972;12.286;2023-04-26T03:02:25;100430.72;;;2.26;100.00
64827;BME280;51265;53.972;12.286;2023-04-26T03:04:51;100433.66;;;2.24;100.00
64827;BME280;51265;53.972;12.286;2023-04-26T03:07:17;100434.72;;;2.23;100.00
64827;BME280;51265;53.972;12.286;2023-04-26T03:09:44;100436.28;;;2.36;100.00
64827;BME280;51265;53.972;12.286;2023-04-26T03:12:11;100437.56;;;2.50;100.00
64827;BME280;51265;53.972;12.286;2023-04-26T03:14:37;100438.94;;;2.31;100.00
64827;BME280;51265;53.972;12.286;2023-04-26T03:17:04;100433.16;;;2.28;100.00
64827;BME280;51265;53.972;12.286;2023-04-26T03:19:32;100424.44;;;2.09;100.00
64827;BME280;51265;53.972;12.286;2023-04-26T03:22:00;100426.25;;;2.03;100.00
64827;BME280;51265;53.972;12.286;2023-04-26T03:24:27;100428.41;;;2.01;100.00
64827;BME280;51265;53.972;12.286;2023-04-26T03:26:54;100431.19;;;1.89;100.00
64827;BME280;51265;53.972;12.286;2023-04-26T03:29:20;100432.16;;;1.83;100.00
64827;BME280;51265;53.972;12.286;2023-04-26T03:31:47;100427.66;;;1.72;100.00
64827;BME280;51265;53.972;12.286;2023-04-26T03:34:13;100432.97;;;1.67;100.00
64827;BME280;51265;53.972;12.286;2023-04-26T03:36:39;100435.13;;;1.65;100.00
64827;BME280;51265;53.972;12.286;2023-04-26T03:39:06;100441.66;;;1.81;100.00
64827;BME280;51265;53.972;12.286;2023-04-26T03:41:34;100429.59;;;1.60;100.00
64827;BME280;51265;53.972;12.286;2023-04-26T03:44:04;100440.34;;;1.55;100.00
64827;BME280;51265;53.972;12.286;2023-04-26T03:46:31;100437.53;;;1.49;100.00
64827;BME280;51265;53.972;12.286;2023-04-26T03:48:57;100437.53;;;1.49;100.00
64827;BME280;51265;53.972;12.286;2023-04-26T03:51:24;100450.56;;;1.47;100.00
64827;BME280;51265;53.972;12.286;2023-04-26T03:53:53;100446.75;;;1.48;100.00
64827;BME280;51265;53.972;12.286;2023-04-26T03:56:19;100450.78;;;1.46;100.00
64827;BME280;51265;53.972;12.286;2023-04-26T03:58:48;100447.25;;;1.45;100.00
64827;BME280;51265;53.972;12.286;2023-04-26T04:01:14;100452.66;;;1.45;100.00
64827;BME280;51265;53.972;12.286;2023-04-26T04:03:41;100454.00;;;1.43;100.00
64827;BME280;51265;53.972;12.286;2023-04-26T04:06:07;100449.72;;;1.47;100.00
64827;BME280;51265;53.972;12.286;2023-04-26T04:08:34;100455.97;;;1.47;100.00
64827;BME280;51265;53.972;12.286;2023-04-26T04:11:00;100462.91;;;1.55;100.00
64827;BME280;51265;53.972;12.286;2023-04-26T04:13:28;100460.94;;;1.51;100.00
64827;BME280;51265;53.972;12.286;2023-04-26T04:15:54;100468.00;;;1.52;100.00
64827;BME280;51265;53.972;12.286;2023-04-26T04:18:21;100476.78;;;1.59;100.00
64827;BME280;51265;53.972;12.286;2023-04-26T04:20:48;100475.59;;;1.66;100.00
64827;BME280;51265;53.972;12.286;2023-04-26T04:23:14;100468.38;;;1.72;100.00
64827;BME280;51265;53.972;12.286;2023-04-26T04:25:41;100474.22;;;1.81;100.00
64827;BME280;51265;53.972;12.286;2023-04-26T04:28:11;100478.94;;;2.02;100.00
64827;BME280;51265;53.972;12.286;2023-04-26T04:30:38;100472.03;;;1.94;100.00
64827;BME280;51265;53.972;12.286;2023-04-26T04:33:05;100469.72;;;1.86;100.00
64827;BME280;51265;53.972;12.286;2023-04-26T04:35:32;100475.91;;;1.98;100.00
64827;BME280;51265;53.972;12.286;2023-04-26T04:38:01;100482.97;;;1.99;100.00
64827;BME280;51265;53.972;12.286;2023-04-26T04:40:29;100485.75;;;2.05;100.00
64827;BME280;51265;53.972;12.286;2023-04-26T04:42:56;100490.16;;;2.06;100.00
64827;BME280;51265;53.972;12.286;2023-04-26T04:45:24;100498.13;;;2.12;100.00
64827;BME280;51265;53.972;12.286;2023-04-26T04:47:53;100500.69;;;2.19;100.00
64827;BME280;51265;53.972;12.286;2023-04-26T04:50:21;100502.41;;;2.25;100.00
64827;BME280;51265;53.972;12.286;2023-04-26T04:52:48;100503.50;;;2.24;100.00
64827;BME280;51265;53.972;12.286;2023-04-26T04:55:14;100507.63;;;2.27;100.00
64827;BME280;51265;53.972;12.286;2023-04-26T04:57:43;100502.81;;;2.34;100.00
64827;BME280;51265;53.972;12.286;2023-04-26T05:00:11;100504.16;;;2.31;100.00
64827;BME280;51265;53.972;12.286;2023-04-26T05:02:49;100511.31;;;2.37;100.00
64827;BME280;51265;53.972;12.286;2023-04-26T05:05:16;100516.50;;;2.56;100.00
64827;BME280;51265;53.972;12.286;2023-04-26T05:07:43;100514.34;;;2.58;100.00
64827;BME280;51265;53.972;12.286;2023-04-26T05:10:10;100516.31;;;2.62;100.00
64827;BME280;51265;53.972;12.286;2023-04-26T05:12:37;100513.09;;;2.65;100.00
64827;BME280;51265;53.972;12.286;2023-04-26T05:15:04;100521.91;;;2.89;100.00
64827;BME280;51265;53.972;12.286;2023-04-26T05:17:32;100521.38;;;2.92;100.00
64827;BME280;51265;53.972;12.286;2023-04-26T05:20:03;100517.59;;;2.93;100.00
64827;BME280;51265;53.972;12.286;2023-04-26T05:22:32;100519.81;;;2.96;100.00
64827;BME280;51265;53.972;12.286;2023-04-26T05:25:02;100525.19;;;3.13;100.00
64827;BME280;51265;53.972;12.286;2023-04-26T05:27:30;100522.25;;;3.15;100.00
64827;BME280;51265;53.972;12.286;2023-04-26T05:30:20;100525.72;;;3.32;100.00
64827;BME280;51265;53.972;12.286;2023-04-26T05:33:10;100522.63;;;3.23;100.00
64827;BME280;51265;53.972;12.286;2023-04-26T05:35:44;100515.09;;;3.31;100.00
64827;BME280;51265;53.972;12.286;2023-04-26T05:38:11;100512.44;;;3.36;100.00
64827;BME280;51265;53.972;12.286;2023-04-26T05:40:37;100518.75;;;3.41;100.00
64827;BME280;51265;53.972;12.286;2023-04-26T05:43:06;100514.44;;;3.45;100.00
64827;BME280;51265;53.972;12.286;2023-04-26T05:45:33;100517.22;;;3.50;100.00
64827;BME280;51265;53.972;12.286;2023-04-26T05:48:00;100521.03;;;3.49;100.00
64827;BME280;51265;53.972;12.286;2023-04-26T05:50:26;100507.16;;;3.51;100.00
64827;BME280;51265;53.972;12.286;2023-04-26T05:52:53;100511.28;;;3.54;100.00
64827;BME280;51265;53.972;12.286;2023-04-26T05:55:19;100511.69;;;3.40;100.00
64827;BME280;51265;53.972;12.286;2023-04-26T05:57:46;100517.88;;;3.58;100.00
64827;BME280;51265;53.972;12.286;2023-04-26T06:00:13;100521.16;;;3.87;100.00
64827;BME280;51265;53.972;12.286;2023-04-26T06:02:41;100529.50;;;4.02;100.00
64827;BME280;51265;53.972;12.286;2023-04-26T06:05:14;100529.41;;;4.19;100.00
64827;BME280;51265;53.972;12.286;2023-04-26T06:07:41;100521.94;;;4.41;100.00
64827;BME280;51265;53.972;12.286;2023-04-26T06:10:09;100523.06;;;4.45;100.00
64827;BME280;51265;53.972;12.286;2023-04-26T06:12:40;100523.69;;;4.53;100.00
64827;BME280;51265;53.972;12.286;2023-04-26T06:15:07;100506.19;;;4.48;100.00
64827;BME280;51265;53.972;12.286;2023-04-26T06:17:36;100505.59;;;4.41;100.00
64827;BME280;51265;53.972;12.286;2023-04-26T06:20:03;100505.13;;;4.55;100.00
64827;BME280;51265;53.972;12.286;2023-04-26T06:22:30;100503.34;;;4.70;100.00
64827;BME280;51265;53.972;12.286;2023-04-26T06:24:57;100519.53;;;4.87;100.00
64827;BME280;51265;53.972;12.286;2023-04-26T06:27:37;100504.16;;;4.71;100.00
64827;BME280;51265;53.972;12.286;2023-04-26T06:30:05;100505.31;;;4.80;100.00
64827;BME280;51265;53.972;12.286;2023-04-26T06:32:34;100509.03;;;5.11;100.00
64827;BME280;51265;53.972;12.286;2023-04-26T06:35:02;100503.50;;;4.96;100.00
64827;BME280;51265;53.972;12.286;2023-04-26T06:37:28;100499.72;;;5.02;100.00
64827;BME280;51265;53.972;12.286;2023-04-26T06:39:55;100503.81;;;5.05;100.00
64827;BME280;51265;53.972;12.286;2023-04-26T06:42:36;100487.78;;;4.71;100.00
64827;BME280;51265;53.972;12.286;2023-04-26T06:45:21;100501.59;;;4.96;100.00
64827;BME280;51265;53.972;12.286;2023-04-26T06:47:50;100502.94;;;4.94;100.00
64827;BME280;51265;53.972;12.286;2023-04-26T06:50:18;100503.06;;;5.14;100.00
64827;BME280;51265;53.972;12.286;2023-04-26T06:52:44;100490.22;;;5.15;100.00
64827;BME280;51265;53.972;12.286;2023-04-26T06:55:11;100492.50;;;5.38;100.00
64827;BME280;51265;53.972;12.286;2023-04-26T06:57:37;100494.72;;;5.46;100.00
64827;BME280;51265;53.972;12.286;2023-04-26T07:00:04;100475.06;;;5.44;100.00
64827;BME280;51265;53.972;12.286;2023-04-26T07:02:31;100479.19;;;5.57;100.00
64827;BME280;51265;53.972;12.286;2023-04-26T07:04:57;100467.44;;;5.57;100.00
64827;BME280;51265;53.972;12.286;2023-04-26T07:07:24;100464.66;;;5.46;100.00
64827;BME280;51265;53.972;12.286;2023-04-26T07:09:54;100460.81;;;5.42;100.00
64827;BME280;51265;53.972;12.286;2023-04-26T07:12:21;100477.84;;;5.70;100.00
64827;BME280;51265;53.972;12.286;2023-04-26T07:14:48;100483.88;;;5.87;100.00
64827;BME280;51265;53.972;12.286;2023-04-26T07:17:14;100466.09;;;5.80;100.00
64827;BME280;51265;53.972;12.286;2023-04-26T07:19:40;100452.16;;;5.66;100.00
64827;BME280;51265;53.972;12.286;2023-04-26T07:22:07;100463.72;;;6.09;100.00
64827;BME280;51265;53.972;12.286;2023-04-26T07:24:38;100443.97;;;5.76;100.00
64827;BME280;51265;53.972;12.286;2023-04-26T07:27:05;100448.94;;;6.05;100.00
64827;BME280;51265;53.972;12.286;2023-04-26T07:29:31;100416.09;;;5.89;97.25
64827;BME280;51265;53.972;12.286;2023-04-26T07:31:57;100398.09;;;6.04;93.64
64827;BME280;51265;53.972;12.286;2023-04-26T07:34:24;100386.59;;;5.81;91.26
64827;BME280;51265;53.972;12.286;2023-04-26T07:36:51;100380.03;;;5.77;89.92
64827;BME280;51265;53.972;12.286;2023-04-26T07:39:17;100422.16;;;6.07;89.84
64827;BME280;51265;53.972;12.286;2023-04-26T07:41:43;100392.06;;;6.22;89.27
64827;BME280;51265;53.972;12.286;2023-04-26T07:44:10;100403.00;;;6.22;87.63
64827;BME280;51265;53.972;12.286;2023-04-26T07:46:36;100387.16;;;6.19;87.30
64827;BME280;51265;53.972;12.286;2023-04-26T07:49:03;100384.97;;;6.01;87.90
64827;BME280;51265;53.972;12.286;2023-04-26T07:51:29;100364.16;;;5.79;86.83
64827;BME280;51265;53.972;12.286;2023-04-26T07:53:56;100381.13;;;6.12;87.37
64827;BME280;51265;53.972;12.286;2023-04-26T07:56:23;100368.56;;;6.16;85.51
64827;BME280;51265;53.972;12.286;2023-04-26T07:58:49;100367.47;;;5.96;85.67
64827;BME280;51265;53.972;12.286;2023-04-26T08:01:16;100373.19;;;5.74;86.11
64827;BME280;51265;53.972;12.286;2023-04-26T08:03:43;100377.56;;;5.65;85.67
64827;BME280;51265;53.972;12.286;2023-04-26T08:06:09;100391.53;;;6.15;86.10
64827;BME280;51265;53.972;12.286;2023-04-26T08:08:36;100389.84;;;6.34;85.74
64827;BME280;51265;53.972;12.286;2023-04-26T08:11:08;100363.66;;;5.92;83.49
64827;BME280;51265;53.972;12.286;2023-04-26T08:13:35;100380.59;;;5.94;83.85
64827;BME280;51265;53.972;12.286;2023-04-26T08:16:01;100383.56;;;6.34;83.65
64827;BME280;51265;53.972;12.286;2023-04-26T08:18:28;100382.69;;;6.59;83.38
64827;BME280;51265;53.972;12.286;2023-04-26T08:20:54;100389.19;;;6.78;83.59
64827;BME280;51265;53.972;12.286;2023-04-26T08:23:21;100422.41;;;7.21;84.69
64827;BME280;51265;53.972;12.286;2023-04-26T08:25:48;100426.31;;;7.59;85.22
64827;BME280;51265;53.972;12.286;2023-04-26T08:28:15;100381.34;;;7.21;81.63
64827;BME280;51265;53.972;12.286;2023-04-26T08:30:41;100368.28;;;7.03;81.12
64827;BME280;51265;53.972;12.286;2023-04-26T08:33:08;100374.16;;;7.30;81.81
64827;BME280;51265;53.972;12.286;2023-04-26T08:35:35;100355.09;;;7.15;79.04
64827;BME280;51265;53.972;12.286;2023-04-26T08:38:01;100348.91;;;6.94;79.44
64827;BME280;51265;53.972;12.286;2023-04-26T08:40:28;100343.25;;;6.70;79.00
64827;BME280;51265;53.972;12.286;2023-04-26T08:42:55;100361.47;;;6.95;80.33
64827;BME280;51265;53.972;12.286;2023-04-26T08:45:21;100343.81;;;6.67;79.70
64827;BME280;51265;53.972;12.286;2023-04-26T08:48:04;100363.31;;;7.10;79.77
64827;BME280;51265;53.972;12.286;2023-04-26T08:50:33;100369.81;;;7.24;80.25
64827;BME280;51265;53.972;12.286;2023-04-26T08:52:59;100352.28;;;7.25;78.97
64827;BME280;51265;53.972;12.286;2023-04-26T08:55:26;100335.16;;;7.43;76.56
64827;BME280;51265;53.972;12.286;2023-04-26T08:57:53;100324.19;;;7.43;76.56
64827;BME280;51265;53.972;12.286;2023-04-26T09:00:21;100318.16;;;7.46;75.69
64827;BME280;51265;53.972;12.286;2023-04-26T09:02:49;100322.53;;;7.47;75.25
64827;BME280;51265;53.972;12.286;2023-04-26T09:05:21;100295.41;;;7.12;74.38
64827;BME280;51265;53.972;12.286;2023-04-26T09:07:56;100288.28;;;7.11;74.32
64827;BME280;51265;53.972;12.286;2023-04-26T09:10:26;100282.31;;;6.49;74.50
64827;BME280;51265;53.972;12.286;2023-04-26T09:12:54;100313.41;;;7.18;73.96
64827;BME280;51265;53.972;12.286;2023-04-26T09:15:21;100314.28;;;7.53;73.32
64827;BME280;51265;53.972;12.286;2023-04-26T09:17:48;100294.03;;;7.48;73.07
64827;BME280;51265;53.972;12.286;2023-04-26T09:22:43;100300.00;;;7.56;73.72
64827;BME280;51265;53.972;12.286;2023-04-26T09:25:12;100309.47;;;8.27;71.42
64827;BME280;51265;53.972;12.286;2023-04-26T09:27:40;100284.44;;;7.80;70.70
64827;BME280;51265;53.972;12.286;2023-04-26T09:30:09;100307.84;;;7.67;73.01
64827;BME280;51265;53.972;12.286;2023-04-26T09:32:57;100272.97;;;7.73;71.25
64827;BME280;51265;53.972;12.286;2023-04-26T09:35:34;100260.94;;;7.69;71.61
64827;BME280;51265;53.972;12.286;2023-04-26T09:40:42;100282.13;;;7.92;70.74
64827;BME280;51265;53.972;12.286;2023-04-26T09:43:14;100296.25;;;8.05;72.46
64827;BME280;51265;53.972;12.286;2023-04-26T09:45:50;100254.19;;;7.27;72.31
64827;BME280;51265;53.972;12.286;2023-04-26T09:55:57;100298.13;;;8.38;71.24
64827;BME280;51265;53.972;12.286;2023-04-26T09:58:38;100280.06;;;8.08;71.55
64827;BME280;51265;53.972;12.286;2023-04-26T10:01:07;100270.66;;;7.85;71.52
64827;BME280;51265;53.972;12.286;2023-04-26T10:03:34;100243.94;;;7.43;71.29
64827;BME280;51265;53.972;12.286;2023-04-26T10:06:01;100280.06;;;8.08;71.43
64827;BME280;51265;53.972;12.286;2023-04-26T10:08:27;100269.66;;;8.29;70.63
64827;BME280;51265;53.972;12.286;2023-04-26T10:10:54;100276.31;;;7.99;71.76
64827;BME280;51265;53.972;12.286;2023-04-26T10:13:20;100263.03;;;8.11;70.52
64827;BME280;51265;53.972;12.286;2023-04-26T10:15:47;100288.59;;;8.55;70.79
64827;BME280;51265;53.972;12.286;2023-04-26T10:18:14;100222.78;;;8.02;69.16
64827;BME280;51265;53.972;12.286;2023-04-26T10:20:43;100240.69;;;7.70;70.55
64827;BME280;51265;53.972;12.286;2023-04-26T10:23:22;100252.09;;;7.77;70.77
64827;BME280;51265;53.972;12.286;2023-04-26T10:25:51;100269.72;;;7.71;72.30
64827;BME280;51265;53.972;12.286;2023-04-26T10:31:13;100309.28;;;8.47;71.58
64827;BME280;51265;53.972;12.286;2023-04-26T10:33:39;100261.16;;;8.55;69.61
64827;BME280;51265;53.972;12.286;2023-04-26T10:36:11;100222.50;;;7.79;70.05
64827;BME280;51265;53.972;12.286;2023-04-26T10:38:40;100237.88;;;7.75;71.30
64827;BME280;51265;53.972;12.286;2023-04-26T10:41:32;100321.56;;;8.73;71.90
64827;BME280;51265;53.972;12.286;2023-04-26T10:47:01;100266.03;;;9.52;67.88
64827;BME280;51265;53.972;12.286;2023-04-26T10:49:27;100200.34;;;8.23;67.12
64827;BME280;51265;53.972;12.286;2023-04-26T10:52:13;100199.09;;;7.34;68.25
64827;BME280;51265;53.972;12.286;2023-04-26T10:57:10;100244.44;;;7.16;71.04
64827;BME280;51265;53.972;12.286;2023-04-26T10:59:37;100287.97;;;7.52;72.12
64827;BME280;51265;53.972;12.286;2023-04-26T11:02:03;100308.66;;;8.26;71.05
64827;BME280;51265;53.972;12.286;2023-04-26T11:04:51;100283.47;;;9.10;68.39
64827;BME280;51265;53.972;12.286;2023-04-26T11:07:37;100260.75;;;9.88;65.83
64827;BME280;51265;53.972;12.286;2023-04-26T11:10:07;100217.38;;;9.20;64.43
64827;BME280;51265;53.972;12.286;2023-04-26T11:12:35;100203.97;;;8.81;65.05
64827;BME280;51265;53.972;12.286;2023-04-26T11:15:02;100233.00;;;9.38;65.34
64827;BME280;51265;53.972;12.286;2023-04-26T11:17:35;100205.50;;;9.06;65.41
64827;BME280;51265;53.972;12.286;2023-04-26T11:20:07;100246.63;;;9.30;66.62
64827;BME280;51265;53.972;12.286;2023-04-26T11:22:38;100198.88;;;9.07;65.30
64827;BME280;51265;53.972;12.286;2023-04-26T11:25:05;100218.28;;;8.96;66.37
64827;BME280;51265;53.972;12.286;2023-04-26T11:27:31;100216.94;;;9.13;65.76
64827;BME280;51265;53.972;12.286;2023-04-26T11:30:01;100186.19;;;9.11;64.47
64827;BME280;51265;53.972;12.286;2023-04-26T11:32:28;100195.47;;;9.47;63.50
64827;BME280;51265;53.972;12.286;2023-04-26T11:34:54;100158.44;;;9.72;60.46
64827;BME280;51265;53.972;12.286;2023-04-26T11:37:20;100178.00;;;9.85;61.15
64827;BME280;51265;53.972;12.286;2023-04-26T11:39:47;100178.22;;;10.16;61.41
64827;BME280;51265;53.972;12.286;2023-04-26T11:42:13;100196.31;;;10.72;60.88
64827;BME280;51265;53.972;12.286;2023-04-26T11:44:40;100229.50;;;10.89;62.54
64827;BME280;51265;53.972;12.286;2023-04-26T11:47:06;100217.16;;;11.01;62.27
64827;BME280;51265;53.972;12.286;2023-04-26T11:49:35;100174.59;;;10.93;60.24
64827;BME280;51265;53.972;12.286;2023-04-26T11:52:03;100173.91;;;10.51;60.17
64827;BME280;51265;53.972;12.286;2023-04-26T11:54:31;100154.03;;;10.40;60.65
64827;BME280;51265;53.972;12.286;2023-04-26T11:56:58;100118.69;;;10.20;59.05
64827;BME280;51265;53.972;12.286;2023-04-26T11:59:28;100117.69;;;9.88;59.77
64827;BME280;51265;53.972;12.286;2023-04-26T12:01:55;100164.56;;;10.11;61.66
64827;BME280;51265;53.972;12.286;2023-04-26T12:04:29;100178.63;;;9.95;62.16
64827;BME280;51265;53.972;12.286;2023-04-26T12:07:17;100256.41;;;10.56;64.75
64827;BME280;51265;53.972;12.286;2023-04-26T12:10:14;100159.25;;;9.73;62.67
64827;BME280;51265;53.972;12.286;2023-04-26T12:12:50;100151.78;;;9.32;63.39
64827;BME280;51265;53.972;12.286;2023-04-26T12:15:17;100159.94;;;9.05;64.38
64827;BME280;51265;53.972;12.286;2023-04-26T12:20:38;100212.03;;;9.75;63.95
64827;BME280;51265;53.972;12.286;2023-04-26T12:23:07;100162.03;;;9.40;63.21
64827;BME280;51265;53.972;12.286;2023-04-26T12:25:35;100219.38;;;9.93;64.00
64827;BME280;51265;53.972;12.286;2023-04-26T12:28:09;100215.91;;;10.02;64.23
64827;BME280;51265;53.972;12.286;2023-04-26T12:30:38;100188.81;;;10.09;62.47
64827;BME280;51265;53.972;12.286;2023-04-26T12:33:05;100167.91;;;9.94;62.08
64827;BME280;51265;53.972;12.286;2023-04-26T12:35:33;100213.28;;;10.52;62.47
64827;BME280;51265;53.972;12.286;2023-04-26T12:38:00;100151.69;;;10.47;59.30
64827;BME280;51265;53.972;12.286;2023-04-26T12:40:27;100162.38;;;9.53;63.22
64827;BME280;51265;53.972;12.286;2023-04-26T12:42:54;100192.03;;;8.90;65.98
64827;BME280;51265;53.972;12.286;2023-04-26T12:45:22;100177.59;;;8.61;65.58
64827;BME280;51265;53.972;12.286;2023-04-26T12:47:49;100200.56;;;8.70;66.12
64827;BME280;51265;53.972;12.286;2023-04-26T12:50:29;100215.72;;;9.38;64.93
64827;BME280;51265;53.972;12.286;2023-04-26T12:52:56;100216.28;;;9.54;63.60
64827;BME280;51265;53.972;12.286;2023-04-26T12:55:22;100221.00;;;9.94;62.95
64827;BME280;51265;53.972;12.286;2023-04-26T12:57:48;100171.47;;;9.94;60.69
64827;BME280;51265;53.972;12.286;2023-04-26T13:00:15;100143.06;;;9.71;60.69
64827;BME280;51265;53.972;12.286;2023-04-26T13:02:43;100196.56;;;10.07;61.88
64827;BME280;51265;53.972;12.286;2023-04-26T13:05:09;100217.59;;;10.30;61.55
64827;BME280;51265;53.972;12.286;2023-04-26T13:07:38;100147.66;;;9.76;60.69
64827;BME280;51265;53.972;12.286;2023-04-26T13:10:05;100183.44;;;9.11;63.28
64827;BME280;51265;53.972;12.286;2023-04-26T13:12:32;100213.91;;;8.58;66.25